Time;durP1;ratioP1;P1;durP2;ratioP2;P2;SDS_P1;SDS_P2;PMS_P1;PMS_P2;Temp;Humidity;BMP_temperature;BMP_pressure;BME280_temperature;BME280_humidity;BME280_pressure;Samples;Min_cycle;Max_cycle;Signal;HPM_P1;HPM_P2
2021/08/09 00:00:33;;;;;;;3.50;2.60;;;13.50;99.90;;;;;;6151846;23;20719;-93
2021/08/09 00:03:00;;;;;;;4.33;2.57;;;13.50;99.90;;;;;;6151591;23;20587;-94
2021/08/09 00:05:27;;;;;;;4.80;2.80;;;13.50;99.90;;;;;;6152554;23;20556;-93
2021/08/09 00:08:00;;;;;;;3.17;2.30;;;13.50;99.90;;;;;;6150882;23;20626;-93
2021/08/09 00:10:27;;;;;;;4.83;2.90;;;13.40;99.90;;;;;;6151640;23;20619;-93
2021/08/09 00:12:55;;;;;;;4.20;2.50;;;13.40;99.90;;;;;;6151223;23;20679;-94
2021/08/09 00:15:23;;;;;;;3.00;2.37;;;13.40;99.90;;;;;;6152262;23;20610;-94
2021/08/09 00:17:56;;;;;;;4.47;2.50;;;13.40;99.90;;;;;;6150886;23;20648;-94
2021/08/09 00:20:23;;;;;;;3.60;2.30;;;13.50;99.90;;;;;;6151727;23;21033;-94
2021/08/09 00:22:51;;;;;;;4.20;2.50;;;13.50;99.90;;;;;;6151571;23;20593;-94
2021/08/09 00:25:18;;;;;;;5.00;2.30;;;13.50;99.90;;;;;;6151837;23;20588;-94
2021/08/09 00:27:45;;;;;;;2.63;2.27;;;13.50;99.90;;;;;;6150275;23;20603;-94
2021/08/09 00:30:12;;;;;;;2.30;2.07;;;13.40;99.90;;;;;;6151832;23;20613;-94
2021/08/09 00:32:41;;;;;;;2.47;2.00;;;13.40;99.90;;;;;;6152914;23;20587;-94
2021/08/09 00:35:09;;;;;;;2.43;2.07;;;13.50;99.90;;;;;;6153656;23;20553;-93
2021/08/09 00:37:36;;;;;;;2.47;2.20;;;13.40;99.90;;;;;;6152437;23;20568;-94
2021/08/09 00:40:04;;;;;;;5.00;2.27;;;13.40;99.90;;;;;;6153432;23;20707;-94
2021/08/09 00:42:31;;;;;;;3.37;2.20;;;13.40;99.90;;;;;;6152810;23;20599;-93
2021/08/09 00:44:57;;;;;;;4.80;2.47;;;13.40;99.90;;;;;;6153095;23;20521;-93
2021/08/09 00:47:24;;;;;;;4.27;2.60;;;13.30;99.90;;;;;;6152039;23;20601;-92
2021/08/09 00:49:54;;;;;;;3.23;2.20;;;13.30;99.90;;;;;;6153590;23;20620;-94
2021/08/09 00:52:22;;;;;;;3.53;2.30;;;13.30;99.90;;;;;;6153115;23;20584;-93
2021/08/09 00:54:49;;;;;;;2.77;2.20;;;13.30;99.90;;;;;;6128375;23;20612;-94
2021/08/09 00:57:16;;;;;;;4.07;2.60;;;13.20;99.90;;;;;;6152694;23;20595;-94
2021/08/09 00:59:43;;;;;;;3.90;2.10;;;13.20;99.90;;;;;;6127902;23;20620;-94
2021/08/09 01:02:10;;;;;;;2.83;2.40;;;13.20;99.90;;;;;;6152710;23;20603;-94
2021/08/09 01:04:37;;;;;;;3.73;2.27;;;13.20;99.90;;;;;;6153267;23;20588;-93
2021/08/09 01:07:06;;;;;;;2.70;1.97;;;13.10;99.90;;;;;;6152320;23;20621;-94
2021/08/09 01:09:44;;;;;;;3.40;2.43;;;13.20;99.90;;;;;;6154157;23;20620;-94
2021/08/09 01:12:16;;;;;;;4.93;2.20;;;13.10;99.90;;;;;;6153254;23;20552;-93
2021/08/09 01:14:59;;;;;;;3.70;2.70;;;13.10;99.90;;;;;;6153040;23;20587;-94
2021/08/09 01:17:31;;;;;;;3.53;2.53;;;13.10;99.90;;;;;;6151695;23;20671;-93
2021/08/09 01:20:10;;;;;;;3.03;2.40;;;13.00;99.90;;;;;;6153159;23;20608;-93
2021/08/09 01:22:49;;;;;;;3.07;2.57;;;13.00;99.90;;;;;;6153096;23;20576;-93
2021/08/09 01:25:24;;;;;;;2.10;1.90;;;12.90;99.90;;;;;;6153199;23;20523;-92
2021/08/09 01:27:54;;;;;;;4.20;1.90;;;12.90;99.90;;;;;;6151631;23;20682;-93
2021/08/09 01:30:22;;;;;;;3.27;2.50;;;12.80;99.90;;;;;;6152881;23;20622;-94
2021/08/09 01:32:53;;;;;;;4.90;2.40;;;12.80;99.90;;;;;;6152334;23;20580;-93
2021/08/09 01:35:23;;;;;;;4.73;2.70;;;12.80;99.90;;;;;;6152953;23;20611;-93
2021/08/09 01:37:54;;;;;;;2.23;2.03;;;12.90;99.90;;;;;;6152106;23;20589;-94
2021/08/09 01:40:22;;;;;;;4.83;2.07;;;12.80;99.90;;;;;;6152823;23;20611;-93
2021/08/09 01:42:50;;;;;;;2.50;2.30;;;12.80;99.90;;;;;;6152484;23;20919;-93
2021/08/09 01:45:18;;;;;;;3.23;2.47;;;12.80;99.90;;;;;;6152855;23;20588;-93
2021/08/09 01:47:46;;;;;;;4.90;2.17;;;12.70;99.90;;;;;;6151534;23;20921;-94
2021/08/09 01:50:14;;;;;;;3.17;2.40;;;12.70;99.90;;;;;;6152308;23;20619;-94
2021/08/09 01:52:44;;;;;;;2.87;2.13;;;12.60;99.90;;;;;;6152280;23;20585;-93
2021/08/09 01:55:14;;;;;;;5.53;2.57;;;12.60;99.90;;;;;;6152754;23;20569;-93
2021/08/09 01:57:41;;;;;;;2.33;1.90;;;12.60;99.90;;;;;;6151768;23;20585;-94
2021/08/09 02:00:10;;;;;;;4.00;1.97;;;12.50;99.90;;;;;;6153414;23;20608;-94
2021/08/09 02:02:52;;;;;;;3.80;2.40;;;12.50;99.90;;;;;;6152126;23;20978;-94
2021/08/09 02:05:19;;;;;;;4.90;1.97;;;12.50;99.90;;;;;;6153561;23;20568;-94
2021/08/09 02:07:48;;;;;;;4.57;2.30;;;12.50;99.90;;;;;;6151727;23;20634;-94
2021/08/09 02:10:19;;;;;;;2.20;2.00;;;12.50;99.90;;;;;;6153341;23;20928;-94
2021/08/09 02:12:54;;;;;;;3.97;2.20;;;12.50;99.90;;;;;;6127161;23;20540;-94
2021/08/09 02:15:27;;;;;;;6.53;2.30;;;12.40;99.90;;;;;;6152989;23;20648;-94
2021/08/09 02:18:02;;;;;;;8.93;2.90;;;12.50;99.90;;;;;;6151956;23;20536;-94
2021/08/09 02:20:33;;;;;;;2.27;1.80;;;12.40;99.90;;;;;;6152871;23;20888;-92
2021/08/09 02:23:03;;;;;;;6.10;2.53;;;12.40;99.90;;;;;;6153013;23;20841;-95
2021/08/09 02:25:34;;;;;;;4.33;2.20;;;12.40;99.90;;;;;;6152747;23;20588;-93
2021/08/09 02:28:07;;;;;;;3.20;1.93;;;12.40;99.90;;;;;;6150651;23;20631;-94
2021/08/09 02:30:38;;;;;;;2.60;1.90;;;12.40;99.90;;;;;;6126346;23;20608;-93
2021/08/09 02:33:15;;;;;;;2.30;1.80;;;12.40;99.90;;;;;;6151921;23;20600;-93
2021/08/09 02:35:44;;;;;;;1.90;1.70;;;12.40;99.90;;;;;;6152875;23;20851;-93
2021/08/09 02:38:11;;;;;;;2.23;1.50;;;12.30;99.90;;;;;;6152371;23;20592;-93
2021/08/09 02:40:40;;;;;;;2.00;1.90;;;12.40;99.90;;;;;;6151322;23;20631;-93
2021/08/09 02:43:08;;;;;;;2.37;2.17;;;12.30;99.90;;;;;;6150566;23;20588;-93
2021/08/09 02:45:36;;;;;;;5.00;2.10;;;12.30;99.90;;;;;;6156049;23;20595;-94
2021/08/09 02:48:04;;;;;;;3.43;1.67;;;12.30;99.90;;;;;;6157233;23;20639;-94
2021/08/09 02:50:32;;;;;;;1.80;1.70;;;12.30;99.90;;;;;;6157708;23;20639;-93
2021/08/09 02:53:00;;;;;;;3.47;2.20;;;12.30;99.90;;;;;;6156152;23;20928;-93
2021/08/09 02:55:28;;;;;;;2.50;1.97;;;12.30;99.90;;;;;;6153201;23;20560;-93
2021/08/09 02:57:55;;;;;;;3.03;1.90;;;12.20;99.90;;;;;;6151953;23;20557;-93
2021/08/09 03:00:22;;;;;;;4.93;2.27;;;12.20;99.90;;;;;;6152152;23;20619;-94
2021/08/09 03:02:51;;;;;;;3.17;2.03;;;12.20;99.90;;;;;;6151773;23;20567;-94
2021/08/09 03:05:19;;;;;;;2.63;2.20;;;12.20;99.90;;;;;;6152562;23;20561;-94
2021/08/09 03:07:48;;;;;;;2.50;1.67;;;12.10;99.90;;;;;;6151215;23;20619;-93
2021/08/09 03:10:17;;;;;;;3.57;1.80;;;12.10;99.90;;;;;;6152496;23;21253;-95
2021/08/09 03:12:44;;;;;;;2.00;1.63;;;12.00;99.90;;;;;;6152280;23;20584;-93
2021/08/09 03:15:12;;;;;;;4.00;1.87;;;12.00;99.90;;;;;;6152753;23;20581;-93
2021/08/09 03:17:39;;;;;;;2.07;1.90;;;12.00;99.90;;;;;;6151347;23;21301;-93
2021/08/09 03:20:07;;;;;;;2.70;1.90;;;12.00;99.90;;;;;;6152439;23;20733;-93
2021/08/09 03:22:41;;;;;;;4.77;3.20;;;11.90;99.90;;;;;;6151888;23;20611;-93
2021/08/09 03:25:10;;;;;;;8.63;5.13;;;11.90;99.90;;;;;;6152837;23;20553;-94
2021/08/09 03:27:37;;;;;;;10.03;6.93;;;11.90;99.90;;;;;;6124706;23;20624;-93
2021/08/09 03:30:05;;;;;;;9.20;8.30;;;11.80;99.90;;;;;;6152230;23;20612;-94
2021/08/09 03:32:32;;;;;;;14.53;12.07;;;11.80;99.90;;;;;;6125568;23;21208;-94
2021/08/09 03:34:58;;;;;;;20.33;18.07;;;11.80;99.90;;;;;;6127181;23;20588;-94
2021/08/09 03:37:25;;;;;;;25.07;18.00;;;11.80;99.90;;;;;;6125159;23;20639;-94
2021/08/09 03:39:59;;;;;;;18.10;14.73;;;11.80;99.90;;;;;;6152196;23;20943;-94
2021/08/09 03:42:30;;;;;;;11.20;10.10;;;11.80;99.90;;;;;;6152360;23;20616;-94
2021/08/09 03:44:56;;;;;;;9.50;8.20;;;11.80;99.90;;;;;;6152121;23;20600;-94
2021/08/09 03:47:23;;;;;;;10.90;8.83;;;11.80;99.90;;;;;;6151389;23;20605;-94
2021/08/09 03:49:54;;;;;;;10.30;9.20;;;11.80;99.90;;;;;;6152424;23;20620;-95
2021/08/09 03:52:20;;;;;;;10.63;9.53;;;11.80;99.90;;;;;;6152439;23;20584;-94
2021/08/09 03:54:47;;;;;;;9.10;8.20;;;11.80;99.90;;;;;;6152152;23;20604;-94
2021/08/09 03:57:14;;;;;;;9.97;6.87;;;11.80;99.90;;;;;;6152010;23;20572;-93
2021/08/09 03:59:43;;;;;;;5.90;5.30;;;11.80;99.90;;;;;;6151638;23;20595;-93
2021/08/09 04:02:14;;;;;;;5.43;4.93;;;11.80;99.90;;;;;;6125862;23;20588;-95
2021/08/09 04:04:41;;;;;;;6.90;5.30;;;11.90;99.90;;;;;;6152554;23;20634;-94
2021/08/09 04:07:08;;;;;;;7.30;4.90;;;11.90;99.90;;;;;;6152135;23;20572;-94
2021/08/09 04:09:35;;;;;;;5.90;5.40;;;11.90;99.90;;;;;;6153442;23;20943;-93
2021/08/09 04:12:02;;;;;;;6.13;5.53;;;11.90;99.90;;;;;;6153445;23;20587;-94
2021/08/09 04:14:29;;;;;;;6.00;4.90;;;11.90;99.90;;;;;;6153632;23;21418;-93
2021/08/09 04:16:59;;;;;;;5.50;5.00;;;11.90;99.90;;;;;;6152965;23;20682;-93
2021/08/09 04:19:26;;;;;;;6.80;5.17;;;11.90;99.90;;;;;;6153596;23;20576;-94
2021/08/09 04:21:53;;;;;;;5.63;4.27;;;11.90;99.90;;;;;;6153757;23;20545;-94
2021/08/09 04:24:20;;;;;;;3.93;3.60;;;11.90;99.90;;;;;;6154026;23;20580;-94
2021/08/09 04:26:47;;;;;;;5.80;4.03;;;11.90;99.90;;;;;;6154185;23;20576;-95
2021/08/09 04:29:13;;;;;;;3.87;3.57;;;11.90;99.90;;;;;;6152471;23;20695;-93
2021/08/09 04:31:44;;;;;;;5.03;4.47;;;11.90;99.90;;;;;;6154015;23;21512;-94
2021/08/09 04:34:12;;;;;;;3.90;3.50;;;11.90;99.90;;;;;;6153875;23;20521;-94
2021/08/09 04:36:39;;;;;;;3.87;3.53;;;11.90;99.90;;;;;;6153144;23;20564;-95
2021/08/09 04:39:07;;;;;;;5.83;3.23;;;11.90;99.90;;;;;;6153560;23;20608;-95
2021/08/09 04:41:33;;;;;;;4.57;3.50;;;11.90;99.90;;;;;;6154160;23;20620;-94
2021/08/09 04:44:01;;;;;;;3.60;3.07;;;11.90;99.90;;;;;;6154129;23;20569;-94
2021/08/09 04:46:28;;;;;;;4.13;3.73;;;12.00;99.90;;;;;;6127885;23;20599;-94
2021/08/09 04:48:55;;;;;;;4.03;3.47;;;12.00;99.90;;;;;;6153173;23;20933;-94
2021/08/09 04:51:23;;;;;;;3.57;3.27;;;12.00;99.90;;;;;;6152960;23;20618;-94
2021/08/09 04:53:52;;;;;;;4.17;3.70;;;12.00;99.90;;;;;;6153909;23;20600;-93
2021/08/09 04:56:19;;;;;;;3.37;3.07;;;12.10;99.90;;;;;;6127572;23;20589;-94
2021/08/09 04:58:45;;;;;;;3.00;2.80;;;12.10;99.90;;;;;;6127098;23;20572;-94
2021/08/09 05:01:19;;;;;;;6.53;3.63;;;12.10;99.90;;;;;;6153236;23;20958;-94
2021/08/09 05:03:46;;;;;;;3.87;3.30;;;12.20;99.90;;;;;;6153714;23;20514;-93
2021/08/09 05:06:18;;;;;;;3.40;3.10;;;12.20;99.90;;;;;;6153085;23;20588;-94
2021/08/09 05:08:46;;;;;;;3.43;3.13;;;12.30;99.90;;;;;;6153108;23;20596;-94
2021/08/09 05:11:14;;;;;;;4.37;3.53;;;12.30;99.90;;;;;;6153503;23;20650;-94
2021/08/09 05:13:41;;;;;;;3.17;2.83;;;12.30;99.90;;;;;;6152965;23;20579;-93
2021/08/09 05:16:08;;;;;;;3.30;3.10;;;12.30;99.90;;;;;;6153879;23;20678;-96
2021/08/09 05:18:34;;;;;;;4.73;3.50;;;12.30;99.90;;;;;;6152024;23;20594;-95
2021/08/09 05:21:04;;;;;;;5.20;3.00;;;12.40;99.90;;;;;;6153700;23;20691;-94
2021/08/09 05:23:31;;;;;;;3.70;3.10;;;12.40;99.90;;;;;;6153526;23;20584;-96
2021/08/09 05:25:59;;;;;;;3.20;2.90;;;12.40;99.90;;;;;;6154450;23;20557;-95
2021/08/09 05:28:26;;;;;;;4.13;3.80;;;12.50;99.90;;;;;;6152371;23;20675;-94
2021/08/09 05:30:53;;;;;;;3.90;3.60;;;12.50;99.90;;;;;;6153245;23;20627;-94
2021/08/09 05:33:21;;;;;;;4.90;3.60;;;12.60;99.90;;;;;;6153274;23;20598;-95
2021/08/09 05:35:50;;;;;;;3.50;3.20;;;12.60;99.90;;;;;;6155650;23;20679;-95
2021/08/09 05:38:17;;;;;;;3.90;3.50;;;12.60;99.90;;;;;;6155809;23;20585;-96
2021/08/09 05:40:44;;;;;;;3.80;3.17;;;12.70;99.90;;;;;;6153339;23;20627;-96
2021/08/09 05:43:13;;;;;;;5.07;3.70;;;12.70;99.90;;;;;;6152750;23;20711;-95
2021/08/09 05:45:39;;;;;;;5.83;3.40;;;12.80;99.90;;;;;;6154145;23;20941;-95
2021/08/09 05:48:06;;;;;;;4.40;3.70;;;12.90;99.90;;;;;;6152545;23;20620;-95
2021/08/09 05:50:33;;;;;;;3.60;2.97;;;13.00;99.90;;;;;;6153604;23;20593;-96
2021/08/09 05:53:01;;;;;;;3.57;3.27;;;13.00;99.90;;;;;;6153442;23;20716;-95
2021/08/09 05:55:31;;;;;;;3.70;3.37;;;13.10;99.90;;;;;;6154566;23;20545;-95
2021/08/09 05:58:03;;;;;;;3.97;3.30;;;13.20;99.90;;;;;;6153112;23;20588;-95
2021/08/09 06:00:31;;;;;;;3.20;3.00;;;13.30;99.90;;;;;;6153697;23;20639;-96
2021/08/09 06:02:58;;;;;;;5.00;3.00;;;13.40;99.90;;;;;;6153462;23;20587;-95
2021/08/09 06:05:26;;;;;;;2.57;2.37;;;13.50;99.90;;;;;;6154354;23;20667;-95
2021/08/09 06:07:57;;;;;;;3.10;2.80;;;13.60;99.90;;;;;;6152640;23;21145;-95
2021/08/09 06:10:24;;;;;;;4.90;2.83;;;13.70;99.90;;;;;;6155967;23;20608;-94
2021/08/09 06:12:53;;;;;;;3.90;2.57;;;13.70;99.90;;;;;;6159335;23;20687;-94
2021/08/09 06:15:19;;;;;;;4.70;3.30;;;13.90;99.90;;;;;;6159083;23;20708;-96
2021/08/09 06:17:48;;;;;;;4.60;2.17;;;14.00;99.90;;;;;;6156574;23;20606;-95
2021/08/09 06:20:16;;;;;;;4.33;2.43;;;14.10;99.90;;;;;;6157032;23;20591;-95
2021/08/09 06:22:43;;;;;;;3.37;2.47;;;14.20;99.90;;;;;;6159767;23;20583;-95
2021/08/09 06:25:11;;;;;;;4.73;3.20;;;14.30;99.90;;;;;;6157167;23;20580;-96
2021/08/09 06:27:39;;;;;;;5.10;3.17;;;14.40;99.90;;;;;;6158730;23;20632;-96
2021/08/09 06:30:07;;;;;;;4.00;2.47;;;14.50;99.90;;;;;;6156622;23;20692;-96
2021/08/09 06:32:37;;;;;;;2.57;2.13;;;14.60;99.90;;;;;;6156308;23;20663;-96
2021/08/09 06:35:10;;;;;;;4.50;2.87;;;14.70;99.90;;;;;;6157622;23;20569;-95
2021/08/09 06:37:38;;;;;;;6.70;2.23;;;14.70;99.90;;;;;;6155223;23;20607;-94
2021/08/09 06:40:05;;;;;;;2.60;2.20;;;14.80;99.90;;;;;;6154990;23;20663;-95
2021/08/09 06:42:34;;;;;;;2.87;1.90;;;15.00;99.90;;;;;;6154077;23;20612;-95
2021/08/09 06:45:01;;;;;;;5.93;2.13;;;15.10;99.90;;;;;;6157080;23;20588;-95
2021/08/09 06:47:27;;;;;;;5.50;2.60;;;15.10;99.90;;;;;;6155297;23;20612;-96
2021/08/09 06:49:54;;;;;;;2.80;2.03;;;15.30;99.90;;;;;;6159878;23;20643;-96
2021/08/09 06:52:25;;;;;;;2.37;1.97;;;15.40;99.90;;;;;;6160629;23;20620;-95
2021/08/09 06:54:52;;;;;;;2.63;2.00;;;15.40;99.90;;;;;;6159177;23;20584;-95
2021/08/09 06:57:19;;;;;;;3.80;2.77;;;15.50;99.90;;;;;;6156391;23;21097;-96
2021/08/09 06:59:46;;;;;;;4.50;2.50;;;15.70;99.90;;;;;;6156577;23;21020;-96
2021/08/09 07:02:13;;;;;;;2.97;2.10;;;15.80;99.90;;;;;;6156352;23;20616;-95
2021/08/09 07:04:42;;;;;;;4.00;1.93;;;15.90;99.90;;;;;;6156456;23;20691;-95
2021/08/09 07:07:11;;;;;;;3.50;2.30;;;16.10;99.90;;;;;;6156110;23;20661;-96
2021/08/09 07:09:43;;;;;;;2.70;2.03;;;16.20;99.90;;;;;;6156485;23;20703;-96
2021/08/09 07:12:10;;;;;;;3.20;1.60;;;16.30;99.90;;;;;;6155641;23;20668;-95
2021/08/09 07:14:37;;;;;;;2.60;1.50;;;16.30;99.90;;;;;;6158549;23;20604;-96
2021/08/09 07:17:06;;;;;;;3.70;2.63;;;16.40;99.90;;;;;;6156733;23;20639;-95
2021/08/09 07:19:33;;;;;;;4.63;1.77;;;16.50;99.90;;;;;;6157988;23;20585;-96
2021/08/09 07:22:00;;;;;;;3.30;2.00;;;16.50;99.90;;;;;;6159413;23;20902;-96
2021/08/09 07:24:28;;;;;;;4.67;1.73;;;16.60;99.90;;;;;;6156371;23;20664;-96
2021/08/09 07:27:03;;;;;;;2.80;2.10;;;16.70;99.90;;;;;;6158833;23;20648;-96
2021/08/09 07:29:31;;;;;;;2.10;1.90;;;16.70;99.90;;;;;;6165319;23;20634;-95
2021/08/09 07:31:59;;;;;;;3.93;2.20;;;16.90;99.90;;;;;;6158126;23;20654;-95
2021/08/09 07:34:26;;;;;;;2.10;1.83;;;17.00;99.90;;;;;;6157866;23;20619;-96
2021/08/09 07:36:53;;;;;;;2.80;1.63;;;17.10;99.90;;;;;;6156518;23;20693;-93
2021/08/09 07:39:20;;;;;;;2.30;2.07;;;17.20;99.90;;;;;;6152187;23;20603;-92
2021/08/09 07:41:47;;;;;;;5.73;1.90;;;17.40;99.90;;;;;;6153448;23;20714;-94
2021/08/09 07:44:15;;;;;;;2.97;1.60;;;17.60;99.90;;;;;;6153849;23;20699;-93
2021/08/09 07:46:42;;;;;;;1.70;1.60;;;17.60;99.90;;;;;;6154549;23;20862;-93
2021/08/09 07:49:16;;;;;;;3.07;1.53;;;17.80;99.90;;;;;;6153349;23;20695;-93
2021/08/09 07:51:45;;;;;;;2.70;1.73;;;17.90;99.90;;;;;;6155081;23;21179;-94
2021/08/09 07:54:12;;;;;;;2.47;1.60;;;18.00;99.90;;;;;;6154304;23;20568;-93
2021/08/09 07:56:41;;;;;;;2.67;1.90;;;18.10;99.90;;;;;;6154002;23;20603;-93
2021/08/09 07:59:10;;;;;;;2.37;1.40;;;18.20;99.90;;;;;;6153173;23;20591;-92
2021/08/09 08:01:42;;;;;;;4.00;1.90;;;18.30;99.90;;;;;;6151237;23;21127;-93
2021/08/09 08:04:13;;;;;;;4.73;1.90;;;18.40;99.90;;;;;;6152443;23;21055;-92
2021/08/09 08:06:40;;;;;;;3.47;1.57;;;18.50;99.90;;;;;;6153156;23;20576;-93
2021/08/09 08:09:07;;;;;;;2.00;1.70;;;18.60;99.90;;;;;;6152746;23;20675;-92
2021/08/09 08:11:36;;;;;;;13.70;1.90;;;18.70;99.90;;;;;;6153281;23;20569;-93
2021/08/09 08:14:09;;;;;;;2.10;1.37;;;18.70;99.90;;;;;;6153149;23;20517;-93
2021/08/09 08:16:41;;;;;;;4.17;2.93;;;18.80;99.90;;;;;;6152965;23;20627;-92
2021/08/09 08:19:10;;;;;;;2.37;1.87;;;18.90;99.90;;;;;;6151791;23;20616;-94
2021/08/09 08:21:37;;;;;;;1.70;1.40;;;19.00;99.90;;;;;;6153091;23;20524;-94
2021/08/09 08:24:06;;;;;;;3.70;1.00;;;19.10;99.90;;;;;;6153012;23;20882;-94
2021/08/09 08:26:33;;;;;;;4.00;1.83;;;19.20;99.90;;;;;;6153009;23;20525;-94
2021/08/09 08:29:00;;;;;;;3.10;1.77;;;19.30;99.90;;;;;;6151706;23;20667;-95
2021/08/09 08:31:27;;;;;;;3.53;1.50;;;19.40;99.90;;;;;;6153320;23;20584;-94
2021/08/09 08:33:56;;;;;;;2.60;1.40;;;19.50;99.90;;;;;;6095491;23;20638;-94
2021/08/09 08:36:24;;;;;;;5.80;1.37;;;19.60;99.90;;;;;;6065852;23;21167;-94
2021/08/09 08:38:52;;;;;;;2.37;1.70;;;19.80;99.90;;;;;;6066890;23;20587;-94
2021/08/09 08:41:19;;;;;;;1.97;1.10;;;19.90;99.90;;;;;;6066784;23;20602;-94
2021/08/09 08:43:46;;;;;;;4.43;1.63;;;20.00;99.90;;;;;;6065592;23;20572;-95
2021/08/09 08:46:13;;;;;;;2.20;1.50;;;20.10;99.90;;;;;;6066833;23;20653;-94
2021/08/09 08:48:40;;;;;;;3.50;1.50;;;20.20;99.90;;;;;;6064074;23;20642;-91
2021/08/09 08:51:09;;;;;;;3.60;1.30;;;20.30;99.90;;;;;;6067725;23;20586;-91
2021/08/09 08:53:38;;;;;;;2.97;1.57;;;20.40;99.90;;;;;;6066551;23;20528;-92
2021/08/09 08:56:06;;;;;;;4.17;1.87;;;20.50;99.90;;;;;;6067604;23;21243;-94
2021/08/09 08:58:35;;;;;;;2.50;1.20;;;20.60;99.90;;;;;;6066297;23;20595;-92
2021/08/09 09:01:02;;;;;;;2.57;1.50;;;20.60;99.90;;;;;;6068267;23;20646;-92
2021/08/09 09:03:29;;;;;;;1.80;1.20;;;20.70;99.90;;;;;;6068022;23;20586;-91
2021/08/09 09:06:01;;;;;;;2.20;1.40;;;20.80;99.90;;;;;;6066269;23;20666;-94
2021/08/09 09:08:41;;;;;;;3.90;1.43;;;21.00;99.90;;;;;;6040908;23;20635;-93
2021/08/09 09:11:08;;;;;;;4.13;1.50;;;21.00;99.90;;;;;;6066248;23;20590;-94
2021/08/09 09:13:36;;;;;;;1.30;1.20;;;21.10;99.90;;;;;;6066662;23;21120;-94
2021/08/09 09:16:08;;;;;;;2.40;1.47;;;21.20;99.90;;;;;;6063658;23;20730;-94
2021/08/09 09:18:46;;;;;;;2.23;1.50;;;21.30;99.90;;;;;;6061596;23;20606;-94
2021/08/09 09:21:23;;;;;;;1.87;1.00;;;21.40;99.90;;;;;;6063836;23;20637;-94
2021/08/09 09:23:51;;;;;;;1.47;1.00;;;21.60;99.90;;;;;;6063487;23;20579;-94
2021/08/09 09:26:23;;;;;;;1.30;0.90;;;21.70;99.90;;;;;;6065270;23;20710;-92
2021/08/09 09:28:53;;;;;;;3.53;1.23;;;21.70;99.20;;;;;;6063809;23;20647;-93
2021/08/09 09:31:30;;;;;;;3.00;1.07;;;22.00;99.90;;;;;;6064566;23;20575;-94
2021/08/09 09:33:58;;;;;;;0.93;0.70;;;22.30;98.60;;;;;;6065485;23;21112;-95
2021/08/09 09:36:25;;;;;;;1.07;0.77;;;22.40;99.30;;;;;;6065942;23;20572;-94
2021/08/09 09:38:53;;;;;;;2.00;1.37;;;22.50;97.10;;;;;;6064669;23;20619;-94
2021/08/09 09:41:22;;;;;;;2.20;1.10;;;22.60;96.80;;;;;;6065588;23;20597;-94
2021/08/09 09:43:49;;;;;;;2.03;0.97;;;22.80;99.10;;;;;;6065559;23;20583;-94
2021/08/09 09:46:22;;;;;;;1.83;1.03;;;22.90;96.10;;;;;;6069359;23;20552;-94
2021/08/09 09:48:49;;;;;;;1.93;0.90;;;22.90;96.20;;;;;;6046168;23;21366;-94
2021/08/09 09:51:17;;;;;;;2.40;1.20;;;22.90;95.00;;;;;;6064847;23;20597;-94
2021/08/09 09:53:45;;;;;;;4.63;1.10;;;22.90;95.40;;;;;;6065367;23;20587;-94
2021/08/09 09:56:14;;;;;;;1.30;0.80;;;23.00;95.70;;;;;;6039911;23;21249;-94
2021/08/09 09:58:41;;;;;;;2.00;1.27;;;23.10;95.60;;;;;;6064992;23;20625;-95
2021/08/09 10:01:10;;;;;;;1.90;1.07;;;23.20;95.80;;;;;;6065131;23;20587;-94
2021/08/09 10:03:39;;;;;;;5.07;1.40;;;23.20;94.90;;;;;;6064779;23;20782;-94
2021/08/09 10:06:06;;;;;;;1.67;0.90;;;23.30;95.00;;;;;;6065435;23;20594;-95
2021/08/09 10:08:35;;;;;;;1.13;0.90;;;23.30;92.10;;;;;;6064303;23;20614;-94
2021/08/09 10:11:04;;;;;;;2.40;1.50;;;23.30;91.30;;;;;;6065619;23;20634;-94
2021/08/09 10:13:35;;;;;;;2.43;0.97;;;23.50;91.90;;;;;;6064812;23;20938;-94
2021/08/09 10:16:04;;;;;;;2.50;0.83;;;23.60;91.40;;;;;;6064708;23;21160;-94
2021/08/09 10:18:34;;;;;;;1.30;1.10;;;23.70;90.90;;;;;;6064022;23;20615;-95
2021/08/09 10:21:02;;;;;;;5.10;1.23;;;24.00;90.60;;;;;;6064002;23;21079;-94
2021/08/09 10:23:38;;;;;;;2.20;1.10;;;24.20;90.50;;;;;;6064738;23;21440;-94
2021/08/09 10:26:06;;;;;;;7.00;1.40;;;24.40;89.50;;;;;;6065379;23;20591;-95
2021/08/09 10:29:08;;;;;;;4.43;1.23;;;24.50;88.40;;;;;;6064414;23;20622;-94
2021/08/09 10:31:38;;;;;;;1.00;0.87;;;24.60;88.10;;;;;;6063308;23;21143;-95
2021/08/09 10:34:07;;;;;;;0.87;0.83;;;24.80;86.60;;;;;;6064739;23;20563;-93
2021/08/09 10:37:12;;;;;;;1.63;0.80;;;25.00;88.00;;;;;;6039734;23;20651;-95
2021/08/09 10:39:56;;;;;;;2.00;1.17;;;25.40;85.20;;;;;;6064974;23;20587;-94
2021/08/09 10:42:34;;;;;;;1.57;1.10;;;25.60;83.70;;;;;;6065593;23;20598;-95
2021/08/09 10:45:03;;;;;;;1.73;0.90;;;25.90;84.40;;;;;;6066121;23;20606;-95
2021/08/09 10:47:51;;;;;;;2.97;1.50;;;26.30;81.80;;;;;;6063462;23;20560;-93
2021/08/09 10:50:49;;;;;;;2.70;1.23;;;26.20;80.70;;;;;;6063546;23;20637;-94
2021/08/09 10:53:56;;;;;;;2.30;1.13;;;26.10;82.70;;;;;;6053964;23;20599;-93
2021/08/09 10:56:47;;;;;;;1.57;1.30;;;26.30;81.30;;;;;;6069018;23;20595;-95
2021/08/09 10:59:39;;;;;;;1.87;1.27;;;26.60;80.60;;;;;;6061072;23;20623;-94
2021/08/09 11:02:16;;;;;;;1.77;1.37;;;26.60;80.00;;;;;;6064661;23;20698;-94
2021/08/09 11:04:43;;;;;;;1.70;1.43;;;26.40;80.00;;;;;;6066641;23;20523;-94
2021/08/09 11:07:19;;;;;;;2.40;2.27;;;26.60;81.00;;;;;;6066199;23;20921;-95
2021/08/09 11:09:47;;;;;;;5.30;1.90;;;26.90;81.00;;;;;;6066837;23;20714;-95
2021/08/09 11:12:23;;;;;;;3.20;2.40;;;27.30;78.70;;;;;;6066805;23;20586;-96
2021/08/09 11:15:15;;;;;;;2.40;2.20;;;27.50;75.90;;;;;;6067090;23;20590;-94
2021/08/09 11:18:07;;;;;;;4.03;3.83;;;27.80;74.80;;;;;;6040168;23;20587;-95
2021/08/09 11:20:37;;;;;;;5.13;4.83;;;28.00;74.10;;;;;;6040933;23;20679;-95
2021/08/09 11:23:08;;;;;;;4.00;3.80;;;28.30;73.00;;;;;;6066593;23;20540;-95
2021/08/09 11:25:37;;;;;;;6.87;6.67;;;28.60;73.00;;;;;;6066774;23;21318;-95
2021/08/09 11:28:13;;;;;;;7.77;7.37;;;28.90;72.10;;;;;;6065543;23;20611;-95
2021/08/09 11:30:47;;;;;;;4.70;4.43;;;29.20;71.20;;;;;;6041128;23;20615;-95
2021/08/09 11:33:34;;;;;;;4.23;4.03;;;29.50;71.00;;;;;;6066432;23;20530;-95
2021/08/09 11:36:02;;;;;;;5.53;5.23;;;29.90;68.80;;;;;;6067119;23;20928;-95
2021/08/09 11:38:31;;;;;;;8.77;8.37;;;30.20;68.00;;;;;;6065247;23;20587;-94
2021/08/09 11:41:05;;;;;;;4.57;4.37;;;30.40;64.80;;;;;;6066787;23;20594;-94
2021/08/09 11:43:34;;;;;;;4.17;3.77;;;30.70;63.80;;;;;;6066265;23;20559;-93
2021/08/09 11:46:03;;;;;;;1.13;1.00;;;31.00;62.10;;;;;;6066596;23;21175;-95
2021/08/09 11:48:33;;;;;;;8.50;8.00;;;31.40;61.10;;;;;;6065309;23;21246;-96
2021/08/09 11:51:03;;;;;;;5.50;5.23;;;31.30;59.80;;;;;;6041552;23;20611;-95
2021/08/09 11:53:33;;;;;;;2.67;2.47;;;31.50;60.00;;;;;;6066716;23;20587;-95
2021/08/09 11:56:13;;;;;;;9.07;8.60;;;31.80;58.80;;;;;;6067011;23;20621;-95
2021/08/09 11:58:41;;;;;;;2.73;1.10;;;31.90;58.80;;;;;;6064740;23;20599;-95
2021/08/09 12:01:09;;;;;;;2.47;1.40;;;31.70;57.10;;;;;;6066502;23;20568;-95
2021/08/09 12:03:37;;;;;;;5.20;4.90;;;31.30;57.30;;;;;;6066027;23;20568;-95
2021/08/09 12:06:24;;;;;;;3.53;3.33;;;31.20;57.40;;;;;;6066414;23;20587;-95
2021/08/09 12:08:53;;;;;;;7.47;7.17;;;31.30;56.90;;;;;;6062536;23;20625;-94
2021/08/09 12:11:24;;;;;;;4.77;4.57;;;31.40;56.90;;;;;;6062145;23;20622;-94
2021/08/09 12:14:03;;;;;;;2.60;1.43;;;31.10;56.80;;;;;;6062239;23;20908;-94
2021/08/09 12:16:31;;;;;;;5.20;4.80;;;30.70;57.20;;;;;;6063053;23;20563;-94
2021/08/09 12:18:59;;;;;;;1.93;1.30;;;29.90;58.20;;;;;;6062034;23;21299;-94
2021/08/09 12:21:33;;;;;;;4.30;1.50;;;29.60;58.50;;;;;;6062561;23;20921;-94
2021/08/09 12:24:01;;;;;;;1.93;1.10;;;29.20;59.50;;;;;;6062858;23;20597;-95
2021/08/09 12:26:31;;;;;;;2.10;1.27;;;29.30;59.20;;;;;;6062058;23;20581;-96
2021/08/09 12:29:01;;;;;;;1.30;1.10;;;30.00;58.40;;;;;;6064463;23;20631;-95
2021/08/09 12:31:33;;;;;;;3.20;1.27;;;30.60;56.90;;;;;;6066235;23;20576;-95
2021/08/09 12:34:02;;;;;;;2.43;1.20;;;31.00;56.40;;;;;;6065408;23;20586;-94
2021/08/09 12:36:29;;;;;;;1.67;1.33;;;31.20;55.90;;;;;;6065516;23;20597;-94
2021/08/09 12:38:56;;;;;;;8.43;1.83;;;31.40;55.80;;;;;;6065523;23;20602;-95
2021/08/09 12:41:28;;;;;;;1.90;1.07;;;31.80;54.10;;;;;;6065795;23;21219;-95
2021/08/09 12:43:55;;;;;;;2.20;1.10;;;32.00;54.00;;;;;;6064415;23;20591;-94
2021/08/09 12:46:22;;;;;;;1.17;1.00;;;31.80;53.00;;;;;;6062134;23;20597;-93
2021/08/09 12:48:50;;;;;;;3.93;1.43;;;31.40;53.90;;;;;;6061840;23;20603;-94
2021/08/09 12:51:19;;;;;;;1.67;1.07;;;30.80;54.50;;;;;;6063207;23;20603;-94
2021/08/09 12:53:46;;;;;;;1.63;1.50;;;30.40;54.90;;;;;;6065698;23;20909;-94
2021/08/09 12:56:13;;;;;;;4.30;1.37;;;30.30;55.00;;;;;;6065599;23;20673;-94
2021/08/09 12:58:41;;;;;;;1.80;1.27;;;30.30;55.20;;;;;;6063179;23;21200;-96